sensor_id;sensor_type;location;lat;lon;timestamp;temperature;humidity
17859;DHT22;35426;30.698;104.050;2023-08-30T00:02:16;23.60;99.90
17859;DHT22;35426;30.698;104.050;2023-08-30T00:04:50;23.70;99.90
17859;DHT22;35426;30.698;104.050;2023-08-30T00:07:23;23.80;99.90
17859;DHT22;35426;30.698;104.050;2023-08-30T00:09:59;23.80;99.90
17859;DHT22;35426;30.698;104.050;2023-08-30T00:12:32;24.00;99.90
17859;DHT22;35426;30.698;104.050;2023-08-30T00:15:07;24.00;99.90
17859;DHT22;35426;30.698;104.050;2023-08-30T00:17:40;24.10;99.90
17859;DHT22;35426;30.698;104.050;2023-08-30T00:20:14;24.10;99.90
17859;DHT22;35426;30.698;104.050;2023-08-30T00:22:48;24.10;99.90
17859;DHT22;35426;30.698;104.050;2023-08-30T00:25:27;24.20;99.90
17859;DHT22;35426;30.698;104.050;2023-08-30T00:28:00;24.10;99.90
17859;DHT22;35426;30.698;104.050;2023-08-30T00:30:36;24.10;99.90
17859;DHT22;35426;30.698;104.050;2023-08-30T00:33:09;24.10;99.90
17859;DHT22;35426;30.698;104.050;2023-08-30T00:35:43;24.00;99.90
17859;DHT22;35426;30.698;104.050;2023-08-30T00:38:16;23.90;99.90
17859;DHT22;35426;30.698;104.050;2023-08-30T00:40:50;24.10;99.90
17859;DHT22;35426;30.698;104.050;2023-08-30T00:43:24;24.10;99.90
17859;DHT22;35426;30.698;104.050;2023-08-30T00:45:58;24.30;99.90
17859;DHT22;35426;30.698;104.050;2023-08-30T00:48:31;24.30;99.90
17859;DHT22;35426;30.698;104.050;2023-08-30T00:51:05;24.30;99.90
17859;DHT22;35426;30.698;104.050;2023-08-30T00:53:38;24.30;99.90
17859;DHT22;35426;30.698;104.050;2023-08-30T00:56:14;24.30;99.90
17859;DHT22;35426;30.698;104.050;2023-08-30T00:58:49;24.50;99.90
17859;DHT22;35426;30.698;104.050;2023-08-30T01:01:24;24.70;99.90
17859;DHT22;35426;30.698;104.050;2023-08-30T01:03:57;24.80;99.90
17859;DHT22;35426;30.698;104.050;2023-08-30T01:06:31;24.80;99.90
17859;DHT22;35426;30.698;104.050;2023-08-30T01:09:07;24.90;99.90
17859;DHT22;35426;30.698;104.050;2023-08-30T01:11:46;25.00;99.90
17859;DHT22;35426;30.698;104.050;2023-08-30T01:14:22;25.10;99.90
17859;DHT22;35426;30.698;104.050;2023-08-30T01:16:56;25.40;99.90
17859;DHT22;35426;30.698;104.050;2023-08-30T01:19:41;25.70;99.90
17859;DHT22;35426;30.698;104.050;2023-08-30T01:22:21;25.90;99.90
17859;DHT22;35426;30.698;104.050;2023-08-30T01:25:12;26.10;99.90
17859;DHT22;35426;30.698;104.050;2023-08-30T01:27:51;26.20;99.90
17859;DHT22;35426;30.698;104.050;2023-08-30T01:30:27;26.60;99.90
17859;DHT22;35426;30.698;104.050;2023-08-30T01:33:03;26.50;99.90
17859;DHT22;35426;30.698;104.050;2023-08-30T01:35:37;26.50;99.90
17859;DHT22;35426;30.698;104.050;2023-08-30T01:38:12;26.70;99.90
17859;DHT22;35426;30.698;104.050;2023-08-30T01:40:46;26.90;99.90
17859;DHT22;35426;30.698;104.050;2023-08-30T01:43:23;26.90;99.90
17859;DHT22;35426;30.698;104.050;2023-08-30T01:45:59;27.20;99.90
17859;DHT22;35426;30.698;104.050;2023-08-30T01:48:34;27.00;99.90
17859;DHT22;35426;30.698;104.050;2023-08-30T01:51:08;27.30;99.90
17859;DHT22;35426;30.698;104.050;2023-08-30T01:53:45;27.40;99.90
17859;DHT22;35426;30.698;104.050;2023-08-30T01:56:19;27.30;99.90
17859;DHT22;35426;30.698;104.050;2023-08-30T01:58:55;27.50;99.90
17859;DHT22;35426;30.698;104.050;2023-08-30T02:01:28;27.50;99.90
17859;DHT22;35426;30.698;104.050;2023-08-30T02:04:02;27.00;99.90
17859;DHT22;35426;30.698;104.050;2023-08-30T02:06:41;27.40;99.90
17859;DHT22;35426;30.698;104.050;2023-08-30T02:09:19;27.60;99.90
17859;DHT22;35426;30.698;104.050;2023-08-30T02:11:55;27.60;99.90
17859;DHT22;35426;30.698;104.050;2023-08-30T02:14:31;27.60;99.90
17859;DHT22;35426;30.698;104.050;2023-08-30T02:17:07;28.00;99.90
17859;DHT22;35426;30.698;104.050;2023-08-30T02:19:41;28.10;99.90
17859;DHT22;35426;30.698;104.050;2023-08-30T02:22:19;28.20;99.90
17859;DHT22;35426;30.698;104.050;2023-08-30T02:24:52;28.60;99.90
17859;DHT22;35426;30.698;104.050;2023-08-30T02:27:26;28.70;99.90
17859;DHT22;35426;30.698;104.050;2023-08-30T02:30:03;28.90;99.90
17859;DHT22;35426;30.698;104.050;2023-08-30T02:32:36;29.20;99.90
17859;DHT22;35426;30.698;104.050;2023-08-30T02:35:10;29.40;99.90
17859;DHT22;35426;30.698;104.050;2023-08-30T02:37:43;29.70;99.90
17859;DHT22;35426;30.698;104.050;2023-08-30T02:40:16;29.80;99.90
17859;DHT22;35426;30.698;104.050;2023-08-30T02:42:49;29.80;99.90
17859;DHT22;35426;30.698;104.050;2023-08-30T02:45:24;29.70;99.90
17859;DHT22;35426;30.698;104.050;2023-08-30T02:47:58;29.80;99.90
17859;DHT22;35426;30.698;104.050;2023-08-30T02:50:32;30.00;99.90
17859;DHT22;35426;30.698;104.050;2023-08-30T02:53:05;29.70;99.90
17859;DHT22;35426;30.698;104.050;2023-08-30T02:55:39;29.60;99.90
17859;DHT22;35426;30.698;104.050;2023-08-30T02:58:11;30.20;99.90
17859;DHT22;35426;30.698;104.050;2023-08-30T03:00:47;30.30;99.90
17859;DHT22;35426;30.698;104.050;2023-08-30T03:03:20;30.50;99.90
17859;DHT22;35426;30.698;104.050;2023-08-30T03:05:55;30.60;99.90
17859;DHT22;35426;30.698;104.050;2023-08-30T03:08:29;30.50;99.90
17859;DHT22;35426;30.698;104.050;2023-08-30T03:11:10;30.30;99.90
17859;DHT22;35426;30.698;104.050;2023-08-30T03:13:53;29.90;99.90
17859;DHT22;35426;30.698;104.050;2023-08-30T03:16:30;30.30;99.90
17859;DHT22;35426;30.698;104.050;2023-08-30T03:19:04;30.60;99.90
17859;DHT22;35426;30.698;104.050;2023-08-30T03:21:37;30.90;99.90
17859;DHT22;35426;30.698;104.050;2023-08-30T03:24:12;30.70;99.90
17859;DHT22;35426;30.698;104.050;2023-08-30T03:26:46;31.10;99.90
17859;DHT22;35426;30.698;104.050;2023-08-30T03:29:20;31.50;99.90
17859;DHT22;35426;30.698;104.050;2023-08-30T03:31:56;31.50;99.90
17859;DHT22;35426;30.698;104.050;2023-08-30T03:34:30;31.40;99.90
17859;DHT22;35426;30.698;104.050;2023-08-30T03:37:03;31.50;99.90
17859;DHT22;35426;30.698;104.050;2023-08-30T03:39:37;30.40;99.90
17859;DHT22;35426;30.698;104.050;2023-08-30T03:42:11;30.60;99.90
17859;DHT22;35426;30.698;104.050;2023-08-30T03:44:45;30.60;99.90
17859;DHT22;35426;30.698;104.050;2023-08-30T03:47:23;30.50;99.90
17859;DHT22;35426;30.698;104.050;2023-08-30T03:49:57;31.20;99.90
17859;DHT22;35426;30.698;104.050;2023-08-30T03:52:31;31.20;99.90
17859;DHT22;35426;30.698;104.050;2023-08-30T03:55:05;31.90;99.90
17859;DHT22;35426;30.698;104.050;2023-08-30T03:57:38;32.30;99.90
17859;DHT22;35426;30.698;104.050;2023-08-30T04:00:12;32.40;99.90
17859;DHT22;35426;30.698;104.050;2023-08-30T04:02:47;32.20;99.90
17859;DHT22;35426;30.698;104.050;2023-08-30T04:05:21;31.90;99.90
17859;DHT22;35426;30.698;104.050;2023-08-30T04:07:57;31.50;99.90
17859;DHT22;35426;30.698;104.050;2023-08-30T04:10:35;31.40;99.90
17859;DHT22;35426;30.698;104.050;2023-08-30T04:13:09;31.50;99.90
17859;DHT22;35426;30.698;104.050;2023-08-30T04:15:44;31.20;99.90
17859;DHT22;35426;30.698;104.050;2023-08-30T04:18:22;31.00;99.90
17859;DHT22;35426;30.698;104.050;2023-08-30T04:20:56;30.70;99.90
17859;DHT22;35426;30.698;104.050;2023-08-30T04:23:30;30.60;99.90
17859;DHT22;35426;30.698;104.050;2023-08-30T04:26:03;30.60;99.90
17859;DHT22;35426;30.698;104.050;2023-08-30T04:28:38;31.00;99.90
17859;DHT22;35426;30.698;104.050;2023-08-30T04:31:11;30.80;99.90
17859;DHT22;35426;30.698;104.050;2023-08-30T04:33:49;30.80;99.90
17859;DHT22;35426;30.698;104.050;2023-08-30T04:36:23;31.10;99.90
17859;DHT22;35426;30.698;104.050;2023-08-30T04:38:57;31.20;99.90
17859;DHT22;35426;30.698;104.050;2023-08-30T04:41:34;31.10;99.90
17859;DHT22;35426;30.698;104.050;2023-08-30T04:44:07;31.10;99.90
17859;DHT22;35426;30.698;104.050;2023-08-30T04:46:40;30.80;99.90
17859;DHT22;35426;30.698;104.050;2023-08-30T04:49:17;30.60;99.90
17859;DHT22;35426;30.698;104.050;2023-08-30T04:51:50;30.80;99.90
17859;DHT22;35426;30.698;104.050;2023-08-30T04:54:24;30.80;99.90
17859;DHT22;35426;30.698;104.050;2023-08-30T04:56:58;30.70;99.90
17859;DHT22;35426;30.698;104.050;2023-08-30T04:59:33;30.40;99.90
17859;DHT22;35426;30.698;104.050;2023-08-30T05:02:06;30.10;99.90
17859;DHT22;35426;30.698;104.050;2023-08-30T05:04:49;30.00;99.90
17859;DHT22;35426;30.698;104.050;2023-08-30T05:07:23;30.20;99.90
17859;DHT22;35426;30.698;104.050;2023-08-30T05:09:57;30.50;99.90
17859;DHT22;35426;30.698;104.050;2023-08-30T05:12:31;30.50;99.90
17859;DHT22;35426;30.698;104.050;2023-08-30T05:15:05;30.30;99.90
17859;DHT22;35426;30.698;104.050;2023-08-30T05:17:38;30.50;99.90
17859;DHT22;35426;30.698;104.050;2023-08-30T05:20:13;30.60;99.90
17859;DHT22;35426;30.698;104.050;2023-08-30T05:22:47;30.30;99.90
17859;DHT22;35426;30.698;104.050;2023-08-30T05:25:21;30.30;99.90
17859;DHT22;35426;30.698;104.050;2023-08-30T05:27:54;30.20;99.90
17859;DHT22;35426;30.698;104.050;2023-08-30T05:30:28;30.10;99.90
17859;DHT22;35426;30.698;104.050;2023-08-30T05:33:12;29.70;99.90
17859;DHT22;35426;30.698;104.050;2023-08-30T05:36:01;29.90;99.90
17859;DHT22;35426;30.698;104.050;2023-08-30T05:38:57;29.90;99.90
17859;DHT22;35426;30.698;104.050;2023-08-30T05:41:35;30.00;99.90
17859;DHT22;35426;30.698;104.050;2023-08-30T05:44:09;29.90;99.90
17859;DHT22;35426;30.698;104.050;2023-08-30T05:46:42;30.00;99.90
17859;DHT22;35426;30.698;104.050;2023-08-30T05:49:16;30.10;99.90
17859;DHT22;35426;30.698;104.050;2023-08-30T05:51:51;30.50;99.90
17859;DHT22;35426;30.698;104.050;2023-08-30T05:54:25;30.80;99.90
17859;DHT22;35426;30.698;104.050;2023-08-30T05:57:03;31.30;99.90
17859;DHT22;35426;30.698;104.050;2023-08-30T05:59:38;31.00;99.90
17859;DHT22;35426;30.698;104.050;2023-08-30T06:02:12;31.70;99.90
17859;DHT22;35426;30.698;104.050;2023-08-30T06:04:45;31.80;99.90
17859;DHT22;35426;30.698;104.050;2023-08-30T06:07:20;32.10;99.90
17859;DHT22;35426;30.698;104.050;2023-08-30T06:09:54;32.00;99.90
17859;DHT22;35426;30.698;104.050;2023-08-30T06:12:27;31.60;99.90
17859;DHT22;35426;30.698;104.050;2023-08-30T06:15:00;31.60;99.90
17859;DHT22;35426;30.698;104.050;2023-08-30T06:17:34;32.00;99.90
17859;DHT22;35426;30.698;104.050;2023-08-30T06:20:08;31.80;99.90
17859;DHT22;35426;30.698;104.050;2023-08-30T06:22:43;31.60;99.90
17859;DHT22;35426;30.698;104.050;2023-08-30T06:25:16;31.90;99.90
17859;DHT22;35426;30.698;104.050;2023-08-30T06:27:57;32.20;99.90
17859;DHT22;35426;30.698;104.050;2023-08-30T06:30:31;32.00;99.90
17859;DHT22;35426;30.698;104.050;2023-08-30T06:33:05;32.00;99.90
17859;DHT22;35426;30.698;104.050;2023-08-30T06:35:38;32.00;99.90
17859;DHT22;35426;30.698;104.050;2023-08-30T06:38:13;32.20;99.90
17859;DHT22;35426;30.698;104.050;2023-08-30T06:40:47;32.30;99.90
17859;DHT22;35426;30.698;104.050;2023-08-30T06:43:21;32.50;99.90
17859;DHT22;35426;30.698;104.050;2023-08-30T06:45:56;32.70;99.90
17859;DHT22;35426;30.698;104.050;2023-08-30T06:48:30;32.80;99.90
17859;DHT22;35426;30.698;104.050;2023-08-30T06:51:03;32.60;99.90
17859;DHT22;35426;30.698;104.050;2023-08-30T06:53:39;32.90;99.90
17859;DHT22;35426;30.698;104.050;2023-08-30T06:56:12;33.10;99.90
17859;DHT22;35426;30.698;104.050;2023-08-30T06:58:45;33.20;99.90
17859;DHT22;35426;30.698;104.050;2023-08-30T07:01:19;32.70;99.90
17859;DHT22;35426;30.698;104.050;2023-08-30T07:03:53;32.30;99.90
17859;DHT22;35426;30.698;104.050;2023-08-30T07:06:26;32.40;99.90
17859;DHT22;35426;30.698;104.050;2023-08-30T07:09:03;32.30;99.90
17859;DHT22;35426;30.698;104.050;2023-08-30T07:11:37;32.30;99.90
17859;DHT22;35426;30.698;104.050;2023-08-30T07:14:11;32.60;99.90
17859;DHT22;35426;30.698;104.050;2023-08-30T07:16:45;32.80;99.90
17859;DHT22;35426;30.698;104.050;2023-08-30T07:19:21;32.80;99.90
17859;DHT22;35426;30.698;104.050;2023-08-30T07:21:56;32.50;99.90
17859;DHT22;35426;30.698;104.050;2023-08-30T07:24:31;32.40;99.90
17859;DHT22;35426;30.698;104.050;2023-08-30T07:27:05;32.40;99.90
17859;DHT22;35426;30.698;104.050;2023-08-30T07:29:43;32.00;99.90
17859;DHT22;35426;30.698;104.050;2023-08-30T07:32:16;32.00;99.90
17859;DHT22;35426;30.698;104.050;2023-08-30T07:34:50;32.10;99.90
17859;DHT22;35426;30.698;104.050;2023-08-30T07:37:26;31.60;99.90
17859;DHT22;35426;30.698;104.050;2023-08-30T07:40:02;31.40;99.90
17859;DHT22;35426;30.698;104.050;2023-08-30T07:42:35;31.40;99.90
17859;DHT22;35426;30.698;104.050;2023-08-30T07:45:09;31.40;99.90
17859;DHT22;35426;30.698;104.050;2023-08-30T07:47:42;31.50;99.90
17859;DHT22;35426;30.698;104.050;2023-08-30T07:50:16;31.70;99.90
17859;DHT22;35426;30.698;104.050;2023-08-30T07:52:50;31.70;99.90
17859;DHT22;35426;30.698;104.050;2023-08-30T07:55:24;31.80;99.90
17859;DHT22;35426;30.698;104.050;2023-08-30T07:57:57;31.80;99.90
17859;DHT22;35426;30.698;104.050;2023-08-30T08:00:30;31.50;99.90
17859;DHT22;35426;30.698;104.050;2023-08-30T08:03:03;31.50;99.90
17859;DHT22;35426;30.698;104.050;2023-08-30T08:05:37;31.10;99.90
17859;DHT22;35426;30.698;104.050;2023-08-30T08:08:10;31.10;99.90
17859;DHT22;35426;30.698;104.050;2023-08-30T08:10:46;31.00;99.90
17859;DHT22;35426;30.698;104.050;2023-08-30T08:13:19;31.20;99.90
17859;DHT22;35426;30.698;104.050;2023-08-30T08:15:55;31.30;99.90
17859;DHT22;35426;30.698;104.050;2023-08-30T08:18:28;31.30;99.90
17859;DHT22;35426;30.698;104.050;2023-08-30T08:21:01;31.00;99.90
17859;DHT22;35426;30.698;104.050;2023-08-30T08:23:35;30.70;99.90
17859;DHT22;35426;30.698;104.050;2023-08-30T08:26:14;30.70;99.90
17859;DHT22;35426;30.698;104.050;2023-08-30T08:28:49;30.70;99.90
17859;DHT22;35426;30.698;104.050;2023-08-30T08:31:23;30.90;99.90
17859;DHT22;35426;30.698;104.050;2023-08-30T08:34:09;31.10;99.90
17859;DHT22;35426;30.698;104.050;2023-08-30T08:36:43;31.10;99.90
17859;DHT22;35426;30.698;104.050;2023-08-30T08:39:17;31.10;99.90
17859;DHT22;35426;30.698;104.050;2023-08-30T08:41:53;31.20;99.90
17859;DHT22;35426;30.698;104.050;2023-08-30T08:44:28;31.20;99.90
17859;DHT22;35426;30.698;104.050;2023-08-30T08:47:04;31.10;99.90
17859;DHT22;35426;30.698;104.050;2023-08-30T08:49:38;31.10;99.90
17859;DHT22;35426;30.698;104.050;2023-08-30T08:52:25;30.80;99.90
17859;DHT22;35426;30.698;104.050;2023-08-30T08:55:09;30.70;99.90
17859;DHT22;35426;30.698;104.050;2023-08-30T08:57:46;30.70;99.90
17859;DHT22;35426;30.698;104.050;2023-08-30T09:00:20;30.80;99.90
17859;DHT22;35426;30.698;104.050;2023-08-30T09:02:54;30.80;99.90
17859;DHT22;35426;30.698;104.050;2023-08-30T09:05:29;30.80;99.90
17859;DHT22;35426;30.698;104.050;2023-08-30T09:08:04;30.90;99.90
17859;DHT22;35426;30.698;104.050;2023-08-30T09:10:38;31.00;99.90
17859;DHT22;35426;30.698;104.050;2023-08-30T09:13:12;31.20;99.90
17859;DHT22;35426;30.698;104.050;2023-08-30T09:15:45;31.20;99.90
17859;DHT22;35426;30.698;104.050;2023-08-30T09:18:19;31.20;99.90
17859;DHT22;35426;30.698;104.050;2023-08-30T09:21:06;30.80;99.90
17859;DHT22;35426;30.698;104.050;2023-08-30T09:23:39;30.70;99.90
17859;DHT22;35426;30.698;104.050;2023-08-30T09:26:12;30.60;99.90
17859;DHT22;35426;30.698;104.050;2023-08-30T09:28:52;30.70;99.90
17859;DHT22;35426;30.698;104.050;2023-08-30T09:31:25;30.70;99.90
17859;DHT22;35426;30.698;104.050;2023-08-30T09:33:59;30.70;99.90
17859;DHT22;35426;30.698;104.050;2023-08-30T09:36:37;30.60;99.90
17859;DHT22;35426;30.698;104.050;2023-08-30T09:39:12;30.30;99.90
17859;DHT22;35426;30.698;104.050;2023-08-30T09:41:47;30.30;99.90
17859;DHT22;35426;30.698;104.050;2023-08-30T09:44:22;30.20;99.90
17859;DHT22;35426;30.698;104.050;2023-08-30T09:46:56;30.20;99.90
17859;DHT22;35426;30.698;104.050;2023-08-30T09:49:33;30.40;99.90
17859;DHT22;35426;30.698;104.050;2023-08-30T09:52:11;30.40;99.90
17859;DHT22;35426;30.698;104.050;2023-08-30T09:54:46;30.30;99.90
17859;DHT22;35426;30.698;104.050;2023-08-30T09:57:19;30.40;99.90
17859;DHT22;35426;30.698;104.050;2023-08-30T09:59:56;30.40;99.90
17859;DHT22;35426;30.698;104.050;2023-08-30T10:02:32;30.40;99.90
17859;DHT22;35426;30.698;104.050;2023-08-30T10:05:06;30.20;99.90
17859;DHT22;35426;30.698;104.050;2023-08-30T10:07:40;30.10;99.90
17859;DHT22;35426;30.698;104.050;2023-08-30T10:10:14;29.90;99.90
17859;DHT22;35426;30.698;104.050;2023-08-30T10:12:47;29.90;99.90
17859;DHT22;35426;30.698;104.050;2023-08-30T10:15:45;30.00;99.90
17859;DHT22;35426;30.698;104.050;2023-08-30T10:18:23;30.00;99.90
17859;DHT22;35426;30.698;104.050;2023-08-30T10:21:00;30.00;99.90
17859;DHT22;35426;30.698;104.050;2023-08-30T10:23:37;30.00;99.90
17859;DHT22;35426;30.698;104.050;2023-08-30T10:26:11;30.10;99.90
17859;DHT22;35426;30.698;104.050;2023-08-30T10:28:45;29.90;99.90
17859;DHT22;35426;30.698;104.050;2023-08-30T10:31:20;30.00;99.90
17859;DHT22;35426;30.698;104.050;2023-08-30T10:33:57;30.10;99.90
17859;DHT22;35426;30.698;104.050;2023-08-30T10:36:30;29.80;99.90
17859;DHT22;35426;30.698;104.050;2023-08-30T10:39:12;29.80;99.90
17859;DHT22;35426;30.698;104.050;2023-08-30T10:41:58;29.70;99.90
17859;DHT22;35426;30.698;104.050;2023-08-30T10:44:31;29.70;99.90
17859;DHT22;35426;30.698;104.050;2023-08-30T10:47:22;29.60;99.90
17859;DHT22;35426;30.698;104.050;2023-08-30T10:49:57;29.60;99.90
17859;DHT22;35426;30.698;104.050;2023-08-30T10:52:31;29.40;99.90
17859;DHT22;35426;30.698;104.050;2023-08-30T10:55:08;29.40;99.90
17859;DHT22;35426;30.698;104.050;2023-08-30T10:57:43;29.40;99.90
17859;DHT22;35426;30.698;104.050;2023-08-30T11:00:21;29.30;99.90
17859;DHT22;35426;30.698;104.050;2023-08-30T11:02:58;29.20;99.90
17859;DHT22;35426;30.698;104.050;2023-08-30T11:05:31;29.00;99.90
17859;DHT22;35426;30.698;104.050;2023-08-30T11:08:05;29.10;99.90
17859;DHT22;35426;30.698;104.050;2023-08-30T11:10:43;29.10;99.90
17859;DHT22;35426;30.698;104.050;2023-08-30T11:13:16;28.90;99.90
17859;DHT22;35426;30.698;104.050;2023-08-30T11:15:52;28.90;99.90
17859;DHT22;35426;30.698;104.050;2023-08-30T11:18:28;28.90;99.90
17859;DHT22;35426;30.698;104.050;2023-08-30T11:21:02;28.90;99.90
17859;DHT22;35426;30.698;104.050;2023-08-30T11:23:36;28.80;99.90
17859;DHT22;35426;30.698;104.050;2023-08-30T11:26:09;28.60;99.90
17859;DHT22;35426;30.698;104.050;2023-08-30T11:28:44;28.60;99.90
17859;DHT22;35426;30.698;104.050;2023-08-30T11:31:21;28.50;99.90
17859;DHT22;35426;30.698;104.050;2023-08-30T11:34:02;28.50;99.90
17859;DHT22;35426;30.698;104.050;2023-08-30T11:36:36;28.40;99.90
17859;DHT22;35426;30.698;104.050;2023-08-30T11:39:10;28.30;99.90
17859;DHT22;35426;30.698;104.050;2023-08-30T11:41:44;28.30;99.90
17859;DHT22;35426;30.698;104.050;2023-08-30T11:44:17;28.20;99.90
17859;DHT22;35426;30.698;104.050;2023-08-30T11:46:57;28.10;99.90
17859;DHT22;35426;30.698;104.050;2023-08-30T11:49:33;28.10;99.90
17859;DHT22;35426;30.698;104.050;2023-08-30T11:52:08;28.10;99.90
17859;DHT22;35426;30.698;104.050;2023-08-30T11:54:41;28.10;99.90
17859;DHT22;35426;30.698;104.050;2023-08-30T11:57:15;28.10;99.90
17859;DHT22;35426;30.698;104.050;2023-08-30T11:59:48;28.10;99.90
17859;DHT22;35426;30.698;104.050;2023-08-30T12:02:23;28.10;99.90
17859;DHT22;35426;30.698;104.050;2023-08-30T12:04:58;28.00;99.90
17859;DHT22;35426;30.698;104.050;2023-08-30T12:07:32;28.00;99.90
17859;DHT22;35426;30.698;104.050;2023-08-30T12:10:06;28.00;99.90
17859;DHT22;35426;30.698;104.050;2023-08-30T12:12:45;28.00;99.90
17859;DHT22;35426;30.698;104.050;2023-08-30T12:15:22;28.00;99.90
17859;DHT22;35426;30.698;104.050;2023-08-30T12:18:07;28.10;99.90
17859;DHT22;35426;30.698;104.050;2023-08-30T12:20:52;28.00;99.90
17859;DHT22;35426;30.698;104.050;2023-08-30T12:23:26;28.00;99.90
17859;DHT22;35426;30.698;104.050;2023-08-30T12:26:03;28.00;99.90
17859;DHT22;35426;30.698;104.050;2023-08-30T12:28:38;28.00;99.90
17859;DHT22;35426;30.698;104.050;2023-08-30T12:31:11;28.00;99.90
17859;DHT22;35426;30.698;104.050;2023-08-30T12:33:45;27.90;99.90
17859;DHT22;35426;30.698;104.050;2023-08-30T12:36:20;27.90;99.90
17859;DHT22;35426;30.698;104.050;2023-08-30T12:38:52;27.90;99.90
17859;DHT22;35426;30.698;104.050;2023-08-30T12:41:26;27.80;99.90
17859;DHT22;35426;30.698;104.050;2023-08-30T12:43:59;27.90;99.90
17859;DHT22;35426;30.698;104.050;2023-08-30T12:46:33;27.90;99.90
17859;DHT22;35426;30.698;104.050;2023-08-30T12:49:06;27.80;99.90
17859;DHT22;35426;30.698;104.050;2023-08-30T12:51:43;27.80;99.90
17859;DHT22;35426;30.698;104.050;2023-08-30T12:54:16;27.70;99.90
17859;DHT22;35426;30.698;104.050;2023-08-30T12:56:50;27.70;99.90
17859;DHT22;35426;30.698;104.050;2023-08-30T12:59:23;27.70;99.90
17859;DHT22;35426;30.698;104.050;2023-08-30T13:01:57;27.70;99.90
17859;DHT22;35426;30.698;104.050;2023-08-30T13:04:35;27.60;99.90
17859;DHT22;35426;30.698;104.050;2023-08-30T13:07:11;27.60;99.90
17859;DHT22;35426;30.698;104.050;2023-08-30T13:09:47;27.50;99.90
17859;DHT22;35426;30.698;104.050;2023-08-30T13:12:24;27.50;99.90
17859;DHT22;35426;30.698;104.050;2023-08-30T13:14:57;27.50;99.90
17859;DHT22;35426;30.698;104.050;2023-08-30T13:17:31;27.60;99.90
17859;DHT22;35426;30.698;104.050;2023-08-30T13:20:06;27.50;99.90
17859;DHT22;35426;30.698;104.050;2023-08-30T13:22:42;27.50;99.90
17859;DHT22;35426;30.698;104.050;2023-08-30T13:25:16;27.50;99.90
17859;DHT22;35426;30.698;104.050;2023-08-30T13:27:49;27.50;99.90
17859;DHT22;35426;30.698;104.050;2023-08-30T13:30:24;27.50;99.90
17859;DHT22;35426;30.698;104.050;2023-08-30T13:32:57;27.50;99.90
17859;DHT22;35426;30.698;104.050;2023-08-30T13:35:32;27.50;99.90
17859;DHT22;35426;30.698;104.050;2023-08-30T13:38:07;27.50;99.90
17859;DHT22;35426;30.698;104.050;2023-08-30T13:40:41;27.50;99.90
17859;DHT22;35426;30.698;104.050;2023-08-30T13:43:14;27.50;99.90
17859;DHT22;35426;30.698;104.050;2023-08-30T13:45:48;27.50;99.90
17859;DHT22;35426;30.698;104.050;2023-08-30T13:48:30;27.50;99.90
17859;DHT22;35426;30.698;104.050;2023-08-30T13:51:04;27.50;99.90
17859;DHT22;35426;30.698;104.050;2023-08-30T13:53:39;27.50;99.90
17859;DHT22;35426;30.698;104.050;2023-08-30T13:56:13;27.50;99.90
17859;DHT22;35426;30.698;104.050;2023-08-30T13:58:49;27.50;99.90
17859;DHT22;35426;30.698;104.050;2023-08-30T14:01:26;27.60;99.90
17859;DHT22;35426;30.698;104.050;2023-08-30T14:03:59;27.40;99.90
17859;DHT22;35426;30.698;104.050;2023-08-30T14:09:06;27.40;99.90
17859;DHT22;35426;30.698;104.050;2023-08-30T14:11:40;27.40;99.90
17859;DHT22;35426;30.698;104.050;2023-08-30T14:14:14;27.40;99.90
17859;DHT22;35426;30.698;104.050;2023-08-30T14:16:47;27.40;99.90
17859;DHT22;35426;30.698;104.050;2023-08-30T14:19:21;27.40;99.90
17859;DHT22;35426;30.698;104.050;2023-08-30T14:21:59;27.30;99.90
17859;DHT22;35426;30.698;104.050;2023-08-30T14:24:39;27.30;99.90
17859;DHT22;35426;30.698;104.050;2023-08-30T14:27:31;27.30;99.90
17859;DHT22;35426;30.698;104.050;2023-08-30T14:30:04;27.30;99.90
17859;DHT22;35426;30.698;104.050;2023-08-30T14:32:37;27.40;99.90
17859;DHT22;35426;30.698;104.050;2023-08-30T14:35:11;27.30;99.90
17859;DHT22;35426;30.698;104.050;2023-08-30T14:37:45;27.30;99.90
17859;DHT22;35426;30.698;104.050;2023-08-30T14:40:22;27.20;99.90
17859;DHT22;35426;30.698;104.050;2023-08-30T14:42:56;27.20;99.90
17859;DHT22;35426;30.698;104.050;2023-08-30T14:45:29;27.10;99.90
17859;DHT22;35426;30.698;104.050;2023-08-30T14:48:07;27.10;99.90
17859;DHT22;35426;30.698;104.050;2023-08-30T14:50:41;27.10;99.90
17859;DHT22;35426;30.698;104.050;2023-08-30T14:53:18;27.10;99.90
17859;DHT22;35426;30.698;104.050;2023-08-30T14:55:54;27.00;99.90
17859;DHT22;35426;30.698;104.050;2023-08-30T14:58:27;27.10;99.90
17859;DHT22;35426;30.698;104.050;2023-08-30T15:01:01;27.10;99.90
17859;DHT22;35426;30.698;104.050;2023-08-30T15:03:35;27.10;99.90
17859;DHT22;35426;30.698;104.050;2023-08-30T15:06:09;27.00;99.90
17859;DHT22;35426;30.698;104.050;2023-08-30T15:08:42;27.00;99.90
17859;DHT22;35426;30.698;104.050;2023-08-30T15:11:18;27.00;99.90
17859;DHT22;35426;30.698;104.050;2023-08-30T15:13:51;27.00;99.90
17859;DHT22;35426;30.698;104.050;2023-08-30T15:16:25;27.00;99.90
17859;DHT22;35426;30.698;104.050;2023-08-30T15:18:59;27.00;99.90
17859;DHT22;35426;30.698;104.050;2023-08-30T15:21:33;27.00;99.90
17859;DHT22;35426;30.698;104.050;2023-08-30T15:24:06;26.90;99.90
17859;DHT22;35426;30.698;104.050;2023-08-30T15:26:42;26.90;99.90
17859;DHT22;35426;30.698;104.050;2023-08-30T15:29:16;26.80;99.90
17859;DHT22;35426;30.698;104.050;2023-08-30T15:31:49;26.80;99.90
17859;DHT22;35426;30.698;104.050;2023-08-30T15:34:23;26.80;99.90
17859;DHT22;35426;30.698;104.050;2023-08-30T15:36:58;26.80;99.90
17859;DHT22;35426;30.698;104.050;2023-08-30T15:39:32;26.70;99.90
17859;DHT22;35426;30.698;104.050;2023-08-30T15:42:07;26.80;99.90
17859;DHT22;35426;30.698;104.050;2023-08-30T15:44:40;26.70;99.90
17859;DHT22;35426;30.698;104.050;2023-08-30T15:47:23;26.70;99.90
17859;DHT22;35426;30.698;104.050;2023-08-30T15:50:09;26.70;99.90
17859;DHT22;35426;30.698;104.050;2023-08-30T15:52:42;26.70;99.90
17859;DHT22;35426;30.698;104.050;2023-08-30T15:55:16;26.70;99.90